18°C Temp
3°C Dewpoint
% Humidity
Temperature
39 KM/H
24 MPH
21 KTS
300°
West North
West

Wind Speed
Parcialmente Nublado
Pressure 1009.92 (hPa) - 29.82 (in)
Visibility 6.2 (mi) - 10.0 (km)

Current Conditions
LEAL
Location 70(km)
Metar :LEAL 221530Z 30021KT 9999 FEW067 18/03 Q1010 NOSIG
Fri 22nd January 17:30 pm

Airport
  Metar Aviation API Data Provided by https://www.checkwx.com/ PHP scripts by weather34.com ©2021